sensor_id;sensor_type;location;lat;lon;timestamp;pressure;altitude;pressure_sealevel;temperature;humidity
14295;BME280;7231;59.370;18.016;2023-11-19T00:00:22;101830.03;;;-3.58;86.67
14295;BME280;7231;59.370;18.016;2023-11-19T00:02:51;101797.00;;;-3.73;86.97
14295;BME280;7231;59.370;18.016;2023-11-19T00:05:20;101821.28;;;-3.52;86.73
14295;BME280;7231;59.370;18.016;2023-11-19T00:07:47;101813.59;;;-3.43;87.03
14295;BME280;7231;59.370;18.016;2023-11-19T00:10:17;101818.56;;;-3.36;86.69
14295;BME280;7231;59.370;18.016;2023-11-19T00:12:47;101812.53;;;-3.28;86.67
14295;BME280;7231;59.370;18.016;2023-11-19T00:15:17;101803.63;;;-3.23;86.43
14295;BME280;7231;59.370;18.016;2023-11-19T00:17:46;101783.56;;;-3.27;86.57
14295;BME280;7231;59.370;18.016;2023-11-19T00:20:18;101798.34;;;-3.24;86.03
14295;BME280;7231;59.370;18.016;2023-11-19T00:22:47;101805.91;;;-3.43;86.29
14295;BME280;7231;59.370;18.016;2023-11-19T00:25:18;101798.22;;;-3.52;86.75
14295;BME280;7231;59.370;18.016;2023-11-19T00:27:47;101762.16;;;-3.71;86.62
14295;BME280;7231;59.370;18.016;2023-11-19T00:30:15;101786.59;;;-3.48;86.98
14295;BME280;7231;59.370;18.016;2023-11-19T00:32:43;101784.19;;;-3.38;86.84
14295;BME280;7231;59.370;18.016;2023-11-19T00:35:12;101734.72;;;-3.54;86.54
14295;BME280;7231;59.370;18.016;2023-11-19T00:37:43;101774.53;;;-3.32;86.38
14295;BME280;7231;59.370;18.016;2023-11-19T00:40:12;101776.66;;;-3.37;86.49
14295;BME280;7231;59.370;18.016;2023-11-19T00:42:43;101771.81;;;-3.51;86.06
14295;BME280;7231;59.370;18.016;2023-11-19T00:45:11;101740.44;;;-3.83;86.11
14295;BME280;7231;59.370;18.016;2023-11-19T00:47:40;101772.88;;;-3.75;86.35
14295;BME280;7231;59.370;18.016;2023-11-19T00:50:09;101765.78;;;-3.86;86.55
14295;BME280;7231;59.370;18.016;2023-11-19T00:52:38;101753.25;;;-4.00;86.58
14295;BME280;7231;59.370;18.016;2023-11-19T00:55:08;101737.44;;;-3.96;86.79
14295;BME280;7231;59.370;18.016;2023-11-19T00:57:36;101735.03;;;-3.77;86.87
14295;BME280;7231;59.370;18.016;2023-11-19T01:00:05;101752.97;;;-3.60;86.90
14295;BME280;7231;59.370;18.016;2023-11-19T01:02:45;101757.34;;;-3.50;86.42
14295;BME280;7231;59.370;18.016;2023-11-19T01:05:17;101761.25;;;-3.45;86.54
14295;BME280;7231;59.370;18.016;2023-11-19T01:07:48;101758.69;;;-3.45;85.99
14295;BME280;7231;59.370;18.016;2023-11-19T01:10:18;101759.91;;;-3.50;86.30
14295;BME280;7231;59.370;18.016;2023-11-19T01:12:46;101752.38;;;-3.57;86.05
14295;BME280;7231;59.370;18.016;2023-11-19T01:15:14;101761.72;;;-3.58;85.97
14295;BME280;7231;59.370;18.016;2023-11-19T01:17:45;101754.63;;;-3.61;86.02
14295;BME280;7231;59.370;18.016;2023-11-19T01:20:16;101744.97;;;-3.63;86.12
14295;BME280;7231;59.370;18.016;2023-11-19T01:22:44;101757.03;;;-3.71;85.87
14295;BME280;7231;59.370;18.016;2023-11-19T01:25:12;101740.44;;;-3.83;86.19
14295;BME280;7231;59.370;18.016;2023-11-19T01:27:42;101708.66;;;-4.02;86.42
14295;BME280;7231;59.370;18.016;2023-11-19T01:30:11;101747.09;;;-3.85;86.64
14295;BME280;7231;59.370;18.016;2023-11-19T01:32:40;101729.59;;;-3.89;86.50
14295;BME280;7231;59.370;18.016;2023-11-19T01:35:08;101744.97;;;-3.80;86.62
14295;BME280;7231;59.370;18.016;2023-11-19T01:37:36;101749.97;;;-3.73;86.53
14295;BME280;7231;59.370;18.016;2023-11-19T01:40:05;101704.59;;;-3.83;86.50
14295;BME280;7231;59.370;18.016;2023-11-19T01:42:36;101740.47;;;-3.57;86.93
14295;BME280;7231;59.370;18.016;2023-11-19T01:45:07;101730.97;;;-3.67;86.53
14295;BME280;7231;59.370;18.016;2023-11-19T01:47:37;101725.38;;;-3.71;86.59
14295;BME280;7231;59.370;18.016;2023-11-19T01:50:06;101732.47;;;-3.77;86.35
14295;BME280;7231;59.370;18.016;2023-11-19T01:52:35;101727.78;;;-3.99;86.69
14295;BME280;7231;59.370;18.016;2023-11-19T01:55:05;101698.69;;;-4.16;86.59
14295;BME280;7231;59.370;18.016;2023-11-19T01:57:35;101719.34;;;-3.98;86.98
14295;BME280;7231;59.370;18.016;2023-11-19T02:00:09;101709.69;;;-4.00;86.28
14295;BME280;7231;59.370;18.016;2023-11-19T02:02:39;101617.16;;;-4.55;86.82
14295;BME280;7231;59.370;18.016;2023-11-19T02:05:09;101707.59;;;-3.87;86.40
14295;BME280;7231;59.370;18.016;2023-11-19T02:07:37;101703.53;;;-3.85;86.27
14295;BME280;7231;59.370;18.016;2023-11-19T02:10:06;101695.25;;;-3.91;86.14
14295;BME280;7231;59.370;18.016;2023-11-19T02:12:40;101653.19;;;-4.28;86.11
14295;BME280;7231;59.370;18.016;2023-11-19T02:15:12;101695.22;;;-4.08;86.00
14295;BME280;7231;59.370;18.016;2023-11-19T02:17:40;101664.00;;;-4.47;86.10
14295;BME280;7231;59.370;18.016;2023-11-19T02:20:08;101696.97;;;-4.42;86.64
14295;BME280;7231;59.370;18.016;2023-11-19T02:22:39;101692.47;;;-4.44;86.75
14295;BME280;7231;59.370;18.016;2023-11-19T02:25:09;101699.38;;;-4.43;86.95
14295;BME280;7231;59.370;18.016;2023-11-19T02:27:48;101687.34;;;-4.44;87.05
14295;BME280;7231;59.370;18.016;2023-11-19T02:30:19;101687.19;;;-4.46;87.34
14295;BME280;7231;59.370;18.016;2023-11-19T02:32:47;101683.13;;;-4.44;87.53
14295;BME280;7231;59.370;18.016;2023-11-19T02:35:15;101679.22;;;-4.40;87.34
14295;BME280;7231;59.370;18.016;2023-11-19T02:37:43;101657.22;;;-4.47;87.51
14295;BME280;7231;59.370;18.016;2023-11-19T02:40:11;101669.28;;;-4.29;87.17
14295;BME280;7231;59.370;18.016;2023-11-19T02:42:40;101617.47;;;-4.52;86.76
14295;BME280;7231;59.370;18.016;2023-11-19T02:45:10;101648.66;;;-4.21;87.44
14295;BME280;7231;59.370;18.016;2023-11-19T02:47:41;101661.34;;;-4.06;87.37
14295;BME280;7231;59.370;18.016;2023-11-19T02:50:10;101659.06;;;-4.11;87.13
14295;BME280;7231;59.370;18.016;2023-11-19T02:52:41;101655.16;;;-4.08;87.30
14295;BME280;7231;59.370;18.016;2023-11-19T02:55:10;101647.31;;;-4.09;87.56
14295;BME280;7231;59.370;18.016;2023-11-19T02:57:39;101640.84;;;-4.06;87.38
14295;BME280;7231;59.370;18.016;2023-11-19T03:00:15;101634.50;;;-4.01;87.21
14295;BME280;7231;59.370;18.016;2023-11-19T03:02:43;101606.34;;;-4.09;87.64
14295;BME280;7231;59.370;18.016;2023-11-19T03:05:13;101620.78;;;-3.93;87.09
14295;BME280;7231;59.370;18.016;2023-11-19T03:07:43;101606.78;;;-3.96;87.01
14295;BME280;7231;59.370;18.016;2023-11-19T03:10:12;101558.75;;;-4.25;87.10
14295;BME280;7231;59.370;18.016;2023-11-19T03:12:42;101606.03;;;-4.12;87.19
14295;BME280;7231;59.370;18.016;2023-11-19T03:15:10;101536.03;;;-4.56;87.26
14295;BME280;7231;59.370;18.016;2023-11-19T03:17:40;101605.44;;;-4.10;87.83
14295;BME280;7231;59.370;18.016;2023-11-19T03:20:10;101604.38;;;-4.03;87.80
14295;BME280;7231;59.370;18.016;2023-11-19T03:22:42;101596.25;;;-3.99;87.42
14295;BME280;7231;59.370;18.016;2023-11-19T03:25:10;101601.22;;;-3.92;87.45
14295;BME280;7231;59.370;18.016;2023-11-19T03:27:39;101592.47;;;-3.94;87.76
14295;BME280;7231;59.370;18.016;2023-11-19T03:30:09;101569.59;;;-4.10;87.86
14295;BME280;7231;59.370;18.016;2023-11-19T03:32:37;101580.13;;;-3.98;87.52
14295;BME280;7231;59.370;18.016;2023-11-19T03:35:07;101583.13;;;-3.94;87.75
14295;BME280;7231;59.370;18.016;2023-11-19T03:37:36;101574.84;;;-4.00;87.49
14295;BME280;7231;59.370;18.016;2023-11-19T03:40:07;101576.06;;;-4.05;87.47
14295;BME280;7231;59.370;18.016;2023-11-19T03:42:35;101574.25;;;-4.06;87.59
14295;BME280;7231;59.370;18.016;2023-11-19T03:45:03;101525.16;;;-4.28;88.07
14295;BME280;7231;59.370;18.016;2023-11-19T03:47:32;101554.53;;;-4.15;87.61
14295;BME280;7231;59.370;18.016;2023-11-19T03:50:00;101567.94;;;-4.09;88.03
14295;BME280;7231;59.370;18.016;2023-11-19T03:52:30;101560.25;;;-4.09;88.29
14295;BME280;7231;59.370;18.016;2023-11-19T03:55:09;101557.84;;;-4.08;88.20
14295;BME280;7231;59.370;18.016;2023-11-19T03:57:39;101556.94;;;-4.08;88.05
14295;BME280;7231;59.370;18.016;2023-11-19T04:00:08;101543.22;;;-4.17;87.54
14295;BME280;7231;59.370;18.016;2023-11-19T04:02:37;101547.44;;;-4.18;87.98
14295;BME280;7231;59.370;18.016;2023-11-19T04:05:05;101549.41;;;-4.15;88.38
14295;BME280;7231;59.370;18.016;2023-11-19T04:07:35;101539.63;;;-4.19;88.01
14295;BME280;7231;59.370;18.016;2023-11-19T04:10:04;101537.53;;;-4.23;88.38
14295;BME280;7231;59.370;18.016;2023-11-19T04:12:32;101541.88;;;-4.22;88.57
14295;BME280;7231;59.370;18.016;2023-11-19T04:15:00;101537.22;;;-4.18;88.29
14295;BME280;7231;59.370;18.016;2023-11-19T04:17:29;101540.22;;;-4.13;88.71
14295;BME280;7231;59.370;18.016;2023-11-19T04:19:57;101537.06;;;-4.11;88.53
14295;BME280;7231;59.370;18.016;2023-11-19T04:22:25;101528.91;;;-4.07;88.63
14295;BME280;7231;59.370;18.016;2023-11-19T04:24:54;101525.88;;;-4.03;88.50
14295;BME280;7231;59.370;18.016;2023-11-19T04:27:22;101460.56;;;-4.34;88.41
14295;BME280;7231;59.370;18.016;2023-11-19T04:29:50;101480.13;;;-4.26;88.08
14295;BME280;7231;59.370;18.016;2023-11-19T04:32:18;101510.22;;;-4.06;88.71
14295;BME280;7231;59.370;18.016;2023-11-19T04:34:47;101517.75;;;-4.07;88.52
14295;BME280;7231;59.370;18.016;2023-11-19T04:37:15;101496.97;;;-4.10;88.51
14295;BME280;7231;59.370;18.016;2023-11-19T04:39:44;101506.03;;;-4.14;88.31
14295;BME280;7231;59.370;18.016;2023-11-19T04:42:14;101488.56;;;-4.18;88.60
14295;BME280;7231;59.370;18.016;2023-11-19T04:44:43;101496.84;;;-4.20;88.53
14295;BME280;7231;59.370;18.016;2023-11-19T04:47:12;101489.31;;;-4.19;88.80
14295;BME280;7231;59.370;18.016;2023-11-19T04:49:41;101491.25;;;-4.16;89.37
14295;BME280;7231;59.370;18.016;2023-11-19T04:52:10;101488.25;;;-4.12;89.12
14295;BME280;7231;59.370;18.016;2023-11-19T04:54:41;101488.53;;;-4.09;89.60
14295;BME280;7231;59.370;18.016;2023-11-19T04:57:09;101475.00;;;-4.17;89.16
14295;BME280;7231;59.370;18.016;2023-11-19T04:59:39;101468.69;;;-4.20;89.69
14295;BME280;7231;59.370;18.016;2023-11-19T05:02:08;101482.97;;;-4.05;90.08
14295;BME280;7231;59.370;18.016;2023-11-19T05:04:36;101479.19;;;-4.00;89.98
14295;BME280;7231;59.370;18.016;2023-11-19T05:07:05;101481.41;;;-3.95;89.79
14295;BME280;7231;59.370;18.016;2023-11-19T05:09:33;101482.00;;;-3.88;90.36
14295;BME280;7231;59.370;18.016;2023-11-19T05:12:02;101480.03;;;-3.82;89.99
14295;BME280;7231;59.370;18.016;2023-11-19T05:14:30;101460.13;;;-3.85;90.26
14295;BME280;7231;59.370;18.016;2023-11-19T05:16:59;101465.81;;;-3.70;90.25
14295;BME280;7231;59.370;18.016;2023-11-19T05:19:27;101468.03;;;-3.65;90.13
14295;BME280;7231;59.370;18.016;2023-11-19T05:21:55;101469.38;;;-3.60;90.34
14295;BME280;7231;59.370;18.016;2023-11-19T05:24:23;101456.41;;;-3.61;90.32
14295;BME280;7231;59.370;18.016;2023-11-19T05:26:52;101429.50;;;-3.75;89.93
14295;BME280;7231;59.370;18.016;2023-11-19T05:29:20;101458.50;;;-3.57;90.40
14295;BME280;7231;59.370;18.016;2023-11-19T05:31:47;101428.47;;;-3.77;90.19
14295;BME280;7231;59.370;18.016;2023-11-19T05:34:17;101452.47;;;-3.57;90.34
14295;BME280;7231;59.370;18.016;2023-11-19T05:36:45;101438.63;;;-3.60;89.93
14295;BME280;7231;59.370;18.016;2023-11-19T05:39:13;101438.06;;;-3.66;90.07
14295;BME280;7231;59.370;18.016;2023-11-19T05:41:44;101424.19;;;-3.68;89.94
14295;BME280;7231;59.370;18.016;2023-11-19T05:44:12;101421.53;;;-3.78;89.67
14295;BME280;7231;59.370;18.016;2023-11-19T05:46:40;101437.28;;;-3.65;89.77
14295;BME280;7231;59.370;18.016;2023-11-19T05:49:12;101441.09;;;-3.70;89.84
14295;BME280;7231;59.370;18.016;2023-11-19T05:51:41;101434.16;;;-3.71;89.90
14295;BME280;7231;59.370;18.016;2023-11-19T05:54:09;101434.78;;;-3.73;89.78
14295;BME280;7231;59.370;18.016;2023-11-19T05:56:37;101427.13;;;-3.82;89.41
14295;BME280;7231;59.370;18.016;2023-11-19T05:59:05;101427.16;;;-3.90;89.82
14295;BME280;7231;59.370;18.016;2023-11-19T06:01:41;101430.34;;;-3.93;89.64
14295;BME280;7231;59.370;18.016;2023-11-19T06:04:09;101429.91;;;-3.98;89.79
14295;BME280;7231;59.370;18.016;2023-11-19T06:06:37;101371.13;;;-4.32;90.07
14295;BME280;7231;59.370;18.016;2023-11-19T06:09:07;101418.31;;;-4.03;90.19
14295;BME280;7231;59.370;18.016;2023-11-19T06:11:40;101433.84;;;-4.01;90.17
14295;BME280;7231;59.370;18.016;2023-11-19T06:14:08;101419.97;;;-4.03;90.46
14295;BME280;7231;59.370;18.016;2023-11-19T06:16:36;101420.41;;;-3.99;90.41
14295;BME280;7231;59.370;18.016;2023-11-19T06:19:06;101431.09;;;-3.94;90.75
14295;BME280;7231;59.370;18.016;2023-11-19T06:21:34;101432.28;;;-3.90;90.47
14295;BME280;7231;59.370;18.016;2023-11-19T06:24:04;101427.44;;;-3.87;90.78
14295;BME280;7231;59.370;18.016;2023-11-19T06:26:33;101429.69;;;-3.82;91.00
14295;BME280;7231;59.370;18.016;2023-11-19T06:29:01;101421.25;;;-3.81;90.90
14295;BME280;7231;59.370;18.016;2023-11-19T06:31:29;101427.81;;;-3.66;91.09
14295;BME280;7231;59.370;18.016;2023-11-19T06:33:57;101421.72;;;-3.57;90.91
14295;BME280;7231;59.370;18.016;2023-11-19T06:36:25;101403.94;;;-3.56;90.65
14295;BME280;7231;59.370;18.016;2023-11-19T06:38:54;101404.34;;;-3.51;90.82
14295;BME280;7231;59.370;18.016;2023-11-19T06:41:22;101411.38;;;-3.40;90.79
14295;BME280;7231;59.370;18.016;2023-11-19T06:43:51;101409.84;;;-3.38;90.52
14295;BME280;7231;59.370;18.016;2023-11-19T06:46:19;101401.53;;;-3.36;90.72
14295;BME280;7231;59.370;18.016;2023-11-19T06:48:48;101401.69;;;-3.34;90.79
14295;BME280;7231;59.370;18.016;2023-11-19T06:51:16;101392.81;;;-3.38;90.49
14295;BME280;7231;59.370;18.016;2023-11-19T06:53:44;101396.00;;;-3.40;90.53
14295;BME280;7231;59.370;18.016;2023-11-19T06:56:20;101385.72;;;-3.40;90.78
14295;BME280;7231;59.370;18.016;2023-11-19T06:58:48;101383.66;;;-3.44;90.32
14295;BME280;7231;59.370;18.016;2023-11-19T07:01:17;101380.94;;;-3.46;90.63
14295;BME280;7231;59.370;18.016;2023-11-19T07:03:46;101367.28;;;-3.55;90.64
14295;BME280;7231;59.370;18.016;2023-11-19T07:06:14;101362.63;;;-3.59;90.53
14295;BME280;7231;59.370;18.016;2023-11-19T07:08:43;101389.41;;;-3.47;91.13
14295;BME280;7231;59.370;18.016;2023-11-19T07:11:12;101379.91;;;-3.48;90.77
14295;BME280;7231;59.370;18.016;2023-11-19T07:13:40;101366.53;;;-3.54;90.87
14295;BME280;7231;59.370;18.016;2023-11-19T07:16:09;101355.72;;;-3.60;91.02
14295;BME280;7231;59.370;18.016;2023-11-19T07:18:39;101372.63;;;-3.43;90.76
14295;BME280;7231;59.370;18.016;2023-11-19T07:21:08;101329.72;;;-3.73;90.83
14295;BME280;7231;59.370;18.016;2023-11-19T07:23:37;101385.38;;;-3.53;90.78
14295;BME280;7231;59.370;18.016;2023-11-19T07:26:06;101380.66;;;-3.49;91.07
14295;BME280;7231;59.370;18.016;2023-11-19T07:28:36;101332.28;;;-3.73;91.16
14295;BME280;7231;59.370;18.016;2023-11-19T07:31:04;101380.03;;;-3.46;91.52
14295;BME280;7231;59.370;18.016;2023-11-19T07:33:34;101357.78;;;-3.56;91.50
14295;BME280;7231;59.370;18.016;2023-11-19T07:36:04;101376.28;;;-3.50;91.03
14295;BME280;7231;59.370;18.016;2023-11-19T07:38:34;101365.00;;;-3.52;91.36
14295;BME280;7231;59.370;18.016;2023-11-19T07:41:02;101366.66;;;-3.52;91.55
14295;BME280;7231;59.370;18.016;2023-11-19T07:43:32;101367.44;;;-3.53;91.73
14295;BME280;7231;59.370;18.016;2023-11-19T07:46:00;101364.72;;;-3.55;91.37
14295;BME280;7231;59.370;18.016;2023-11-19T07:48:28;101367.44;;;-3.53;91.64
14295;BME280;7231;59.370;18.016;2023-11-19T07:50:56;101331.94;;;-3.68;92.00
14295;BME280;7231;59.370;18.016;2023-11-19T07:53:25;101364.38;;;-3.49;92.03
14295;BME280;7231;59.370;18.016;2023-11-19T07:55:53;101367.38;;;-3.45;92.15
14295;BME280;7231;59.370;18.016;2023-11-19T07:58:21;101353.94;;;-3.42;92.32
14295;BME280;7231;59.370;18.016;2023-11-19T08:00:49;101363.97;;;-3.35;91.92
14295;BME280;7231;59.370;18.016;2023-11-19T08:03:17;101369.66;;;-3.29;91.84
14295;BME280;7231;59.370;18.016;2023-11-19T08:05:46;101365.09;;;-3.23;92.50
14295;BME280;7231;59.370;18.016;2023-11-19T08:08:14;101366.56;;;-3.16;92.20
14295;BME280;7231;59.370;18.016;2023-11-19T08:10:43;101361.22;;;-3.09;92.11
14295;BME280;7231;59.370;18.016;2023-11-19T08:13:14;101357.41;;;-3.04;92.18
14295;BME280;7231;59.370;18.016;2023-11-19T08:15:43;101361.13;;;-3.01;91.83
14295;BME280;7231;59.370;18.016;2023-11-19T08:18:11;101322.13;;;-3.25;92.28
14295;BME280;7231;59.370;18.016;2023-11-19T08:20:39;101349.22;;;-3.00;91.89
14295;BME280;7231;59.370;18.016;2023-11-19T08:23:08;101369.94;;;-2.88;91.78
14295;BME280;7231;59.370;18.016;2023-11-19T08:25:36;101361.59;;;-2.86;91.73
14295;BME280;7231;59.370;18.016;2023-11-19T08:28:05;101365.34;;;-2.82;91.87
14295;BME280;7231;59.370;18.016;2023-11-19T08:30:33;101356.53;;;-2.76;92.16
14295;BME280;7231;59.370;18.016;2023-11-19T08:33:01;101355.53;;;-2.68;92.06
14295;BME280;7231;59.370;18.016;2023-11-19T08:35:30;101351.09;;;-2.60;91.96
14295;BME280;7231;59.370;18.016;2023-11-19T08:37:58;101350.69;;;-2.54;91.73
14295;BME280;7231;59.370;18.016;2023-11-19T08:40:26;101338.13;;;-2.51;92.00
14295;BME280;7231;59.370;18.016;2023-11-19T08:42:54;101348.44;;;-2.41;91.90
14295;BME280;7231;59.370;18.016;2023-11-19T08:45:25;101317.97;;;-2.47;92.20
14295;BME280;7231;59.370;18.016;2023-11-19T08:47:53;101346.19;;;-2.18;92.46
14295;BME280;7231;59.370;18.016;2023-11-19T08:50:21;101339.91;;;-2.01;92.88
14295;BME280;7231;59.370;18.016;2023-11-19T08:52:49;101339.69;;;-1.84;92.87
14295;BME280;7231;59.370;18.016;2023-11-19T08:55:17;101343.03;;;-1.75;92.34
14295;BME280;7231;59.370;18.016;2023-11-19T08:57:45;101344.19;;;-1.71;91.89
14295;BME280;7231;59.370;18.016;2023-11-19T09:00:14;101316.06;;;-1.80;91.31
14295;BME280;7231;59.370;18.016;2023-11-19T09:02:43;101339.56;;;-1.75;90.72
14295;BME280;7231;59.370;18.016;2023-11-19T09:05:11;101343.56;;;-1.79;90.46
14295;BME280;7231;59.370;18.016;2023-11-19T09:07:39;101344.31;;;-1.80;90.46
14295;BME280;7231;59.370;18.016;2023-11-19T09:10:08;101331.34;;;-1.81;90.08
14295;BME280;7231;59.370;18.016;2023-11-19T09:12:38;101333.78;;;-1.83;89.93
14295;BME280;7231;59.370;18.016;2023-11-19T09:15:06;101326.06;;;-1.83;89.61
14295;BME280;7231;59.370;18.016;2023-11-19T09:17:37;101300.09;;;-1.96;89.42
14295;BME280;7231;59.370;18.016;2023-11-19T09:20:08;101329.81;;;-1.69;89.66
14295;BME280;7231;59.370;18.016;2023-11-19T09:22:39;101305.63;;;-1.71;89.73
14295;BME280;7231;59.370;18.016;2023-11-19T09:25:07;101302.03;;;-1.63;89.53
14295;BME280;7231;59.370;18.016;2023-11-19T09:27:35;101302.41;;;-1.48;89.28
14295;BME280;7231;59.370;18.016;2023-11-19T09:30:04;101314.22;;;-1.40;89.09
14295;BME280;7231;59.370;18.016;2023-11-19T09:32:34;101300.34;;;-1.32;88.99
14295;BME280;7231;59.370;18.016;2023-11-19T09:35:02;101301.63;;;-1.27;88.69
14295;BME280;7231;59.370;18.016;2023-11-19T09:37:31;101288.34;;;-1.21;88.67
14295;BME280;7231;59.370;18.016;2023-11-19T09:39:59;101281.00;;;-1.17;88.28
14295;BME280;7231;59.370;18.016;2023-11-19T09:42:27;101287.31;;;-1.13;88.16
14295;BME280;7231;59.370;18.016;2023-11-19T09:44:56;101288.44;;;-1.10;87.87
14295;BME280;7231;59.370;18.016;2023-11-19T09:47:26;101289.72;;;-1.05;88.21
14295;BME280;7231;59.370;18.016;2023-11-19T09:49:56;101285.06;;;-0.99;88.02
14295;BME280;7231;59.370;18.016;2023-11-19T09:52:25;101283.72;;;-0.83;88.82
14295;BME280;7231;59.370;18.016;2023-11-19T09:54:54;101263.56;;;-0.67;89.91
14295;BME280;7231;59.370;18.016;2023-11-19T09:57:22;101272.50;;;-0.30;90.18
14295;BME280;7231;59.370;18.016;2023-11-19T09:59:51;101243.16;;;-0.32;89.22
14295;BME280;7231;59.370;18.016;2023-11-19T10:02:20;101270.56;;;-0.11;88.01
14295;BME280;7231;59.370;18.016;2023-11-19T10:04:49;101244.44;;;-0.15;87.51
14295;BME280;7231;59.370;18.016;2023-11-19T10:07:18;101203.72;;;-0.31;87.42
14295;BME280;7231;59.370;18.016;2023-11-19T10:09:50;101244.38;;;0.07;86.85
14295;BME280;7231;59.370;18.016;2023-11-19T10:12:19;101222.63;;;0.03;86.44
14295;BME280;7231;59.370;18.016;2023-11-19T10:14:47;101194.13;;;-0.22;86.12
14295;BME280;7231;59.370;18.016;2023-11-19T10:17:17;101235.31;;;0.00;85.39
14295;BME280;7231;59.370;18.016;2023-11-19T10:19:45;101204.22;;;-0.13;85.77
14295;BME280;7231;59.370;18.016;2023-11-19T10:22:14;101219.94;;;0.02;85.43
14295;BME280;7231;59.370;18.016;2023-11-19T10:24:43;101214.09;;;0.04;85.08
14295;BME280;7231;59.370;18.016;2023-11-19T10:27:17;101158.78;;;-0.35;85.23
14295;BME280;7231;59.370;18.016;2023-11-19T10:29:47;101228.78;;;0.05;85.45
14295;BME280;7231;59.370;18.016;2023-11-19T10:32:15;101216.69;;;0.04;84.60
14295;BME280;7231;59.370;18.016;2023-11-19T10:34:56;101175.53;;;-0.18;84.48
14295;BME280;7231;59.370;18.016;2023-11-19T10:37:32;101216.38;;;-0.01;84.08
14295;BME280;7231;59.370;18.016;2023-11-19T10:40:02;101211.22;;;-0.01;84.63
14295;BME280;7231;59.370;18.016;2023-11-19T10:42:32;101201.81;;;0.00;84.76
14295;BME280;7231;59.370;18.016;2023-11-19T10:45:03;101167.38;;;-0.12;84.85
14295;BME280;7231;59.370;18.016;2023-11-19T10:47:31;101173.31;;;-0.02;84.41
14295;BME280;7231;59.370;18.016;2023-11-19T10:50:05;101196.63;;;0.12;83.56
14295;BME280;7231;59.370;18.016;2023-11-19T10:52:34;101202.22;;;0.06;83.18
14295;BME280;7231;59.370;18.016;2023-11-19T10:55:05;101166.78;;;-0.20;83.38
14295;BME280;7231;59.370;18.016;2023-11-19T10:57:36;101210.88;;;-0.05;83.17
14295;BME280;7231;59.370;18.016;2023-11-19T11:00:09;101202.13;;;-0.07;83.32
14295;BME280;7231;59.370;18.016;2023-11-19T11:02:41;101192.59;;;-0.08;83.70
14295;BME280;7231;59.370;18.016;2023-11-19T11:05:14;101201.69;;;-0.02;82.77
14295;BME280;7231;59.370;18.016;2023-11-19T11:07:44;101200.66;;;-0.04;83.10
14295;BME280;7231;59.370;18.016;2023-11-19T11:10:13;101192.59;;;-0.08;83.06
14295;BME280;7231;59.370;18.016;2023-11-19T11:12:43;101196.25;;;-0.16;82.67
14295;BME280;7231;59.370;18.016;2023-11-19T11:15:14;101194.78;;;-0.24;82.93
14295;BME280;7231;59.370;18.016;2023-11-19T11:17:43;101181.63;;;-0.39;82.90
14295;BME280;7231;59.370;18.016;2023-11-19T11:20:13;101182.06;;;-0.45;83.13
14295;BME280;7231;59.370;18.016;2023-11-19T11:22:49;101179.66;;;-0.53;82.73
14295;BME280;7231;59.370;18.016;2023-11-19T11:25:34;101181.00;;;-0.58;83.08
14295;BME280;7231;59.370;18.016;2023-11-19T11:28:20;101176.03;;;-0.67;83.18
14295;BME280;7231;59.370;18.016;2023-11-19T11:31:07;101157.41;;;-0.75;83.24
14295;BME280;7231;59.370;18.016;2023-11-19T11:33:55;101158.06;;;-0.77;83.34
14295;BME280;7231;59.370;18.016;2023-11-19T11:36:31;101161.72;;;-0.85;82.95
14295;BME280;7231;59.370;18.016;2023-11-19T11:39:04;101165.59;;;-0.90;82.83
14295;BME280;7231;59.370;18.016;2023-11-19T11:41:34;101159.06;;;-0.97;83.52
14295;BME280;7231;59.370;18.016;2023-11-19T11:44:02;101156.63;;;-0.95;83.07
14295;BME280;7231;59.370;18.016;2023-11-19T11:46:56;101160.09;;;-0.95;83.22
14295;BME280;7231;59.370;18.016;2023-11-19T11:49:28;101160.88;;;-0.96;83.24
14295;BME280;7231;59.370;18.016;2023-11-19T11:52:01;101154.81;;;-0.96;83.51
14295;BME280;7231;59.370;18.016;2023-11-19T11:54:30;101156.16;;;-1.02;83.92
14295;BME280;7231;59.370;18.016;2023-11-19T11:57:03;101145.06;;;-1.01;83.82
14295;BME280;7231;59.370;18.016;2023-11-19T11:59:52;101159.97;;;-0.75;84.42
14295;BME280;7231;59.370;18.016;2023-11-19T12:02:22;101160.81;;;-0.64;84.15
14295;BME280;7231;59.370;18.016;2023-11-19T12:04:51;101157.34;;;-0.64;83.40
14295;BME280;7231;59.370;18.016;2023-11-19T12:07:21;101171.28;;;-0.73;83.50
14295;BME280;7231;59.370;18.016;2023-11-19T12:09:52;101161.19;;;-0.81;83.77
14295;BME280;7231;59.370;18.016;2023-11-19T12:12:23;101155.56;;;-0.87;83.46
14295;BME280;7231;59.370;18.016;2023-11-19T12:15:04;101161.34;;;-0.90;83.42
14295;BME280;7231;59.370;18.016;2023-11-19T12:17:46;101151.47;;;-0.95;83.32
14295;BME280;7231;59.370;18.016;2023-11-19T12:20:17;101151.91;;;-1.01;83.41
14295;BME280;7231;59.370;18.016;2023-11-19T12:23:04;101146.56;;;-1.14;83.59
14295;BME280;7231;59.370;18.016;2023-11-19T12:25:34;101146.44;;;-1.16;83.43
14295;BME280;7231;59.370;18.016;2023-11-19T12:28:02;101141.06;;;-1.19;83.46
14295;BME280;7231;59.370;18.016;2023-11-19T12:30:31;101144.94;;;-1.24;83.41
14295;BME280;7231;59.370;18.016;2023-11-19T12:33:07;101142.88;;;-1.28;83.67
14295;BME280;7231;59.370;18.016;2023-11-19T12:35:39;101134.16;;;-1.30;83.59
14295;BME280;7231;59.370;18.016;2023-11-19T12:38:07;101128.75;;;-1.33;83.50
14295;BME280;7231;59.370;18.016;2023-11-19T12:40:35;101131.09;;;-1.36;83.81
14295;BME280;7231;59.370;18.016;2023-11-19T12:43:03;101125.72;;;-1.39;84.01
14295;BME280;7231;59.370;18.016;2023-11-19T12:45:34;101123.78;;;-1.42;83.83
14295;BME280;7231;59.370;18.016;2023-11-19T12:48:07;101134.72;;;-1.44;84.10
14295;BME280;7231;59.370;18.016;2023-11-19T12:50:50;101124.19;;;-1.47;84.10
14295;BME280;7231;59.370;18.016;2023-11-19T12:53:19;101114.72;;;-1.58;84.09
14295;BME280;7231;59.370;18.016;2023-11-19T12:55:47;101127.19;;;-1.53;84.16
14295;BME280;7231;59.370;18.016;2023-11-19T12:58:28;101106.75;;;-1.61;84.31
14295;BME280;7231;59.370;18.016;2023-11-19T13:01:00;101118.56;;;-1.53;84.39
14295;BME280;7231;59.370;18.016;2023-11-19T13:03:31;101116.66;;;-1.56;84.40